Time;durP1;ratioP1;P1;durP2;ratioP2;P2;SDS_P1;SDS_P2;PMS_P1;PMS_P2;Temp;Humidity;BMP_temperature;BMP_pressure;BME280_temperature;BME280_humidity;BME280_pressure;Samples;Min_cycle;Max_cycle;Signal;HPM_P1;HPM_P2
2022/05/18 00:02:01;;;;;;;2.78;1.98;;;21.10;61.70;;;;;;4993711;28;92739;-62
2022/05/18 00:04:27;;;;;;;3.03;2.10;;;21.10;61.70;;;;;;4975663;28;93129;-62
2022/05/18 00:06:53;;;;;;;2.17;1.77;;;21.10;61.60;;;;;;4992597;28;93171;-63
2022/05/18 00:09:19;;;;;;;2.63;1.92;;;21.10;61.60;;;;;;4991534;28;93075;-63
2022/05/18 00:11:45;;;;;;;3.05;2.00;;;21.10;61.60;;;;;;4973941;28;92595;-63
2022/05/18 00:14:10;;;;;;;3.67;2.00;;;21.00;61.50;;;;;;4992628;28;91890;-63
2022/05/18 00:16:36;;;;;;;2.42;1.92;;;21.00;61.60;;;;;;4992099;28;93114;-63
2022/05/18 00:19:02;;;;;;;2.88;2.15;;;21.00;61.50;;;;;;4991602;28;93566;-63
2022/05/18 00:21:30;;;;;;;2.17;1.98;;;21.00;61.60;;;;;;4990766;28;95254;-63
2022/05/18 00:23:56;;;;;;;2.88;1.92;;;21.10;61.60;;;;;;4991893;28;92621;-63
2022/05/18 00:26:22;;;;;;;2.30;2.03;;;21.10;61.60;;;;;;4991718;28;93144;-63
2022/05/18 00:28:48;;;;;;;3.22;2.00;;;21.00;61.50;;;;;;4991034;28;93198;-62
2022/05/18 00:31:17;;;;;;;3.40;2.08;;;21.00;61.50;;;;;;4991673;28;92522;-63
2022/05/18 00:33:42;;;;;;;3.35;2.10;;;21.00;61.50;;;;;;4973368;28;93059;-63
2022/05/18 00:36:08;;;;;;;2.80;2.13;;;21.00;61.50;;;;;;4991372;28;92975;-63
2022/05/18 00:38:34;;;;;;;2.72;2.00;;;21.00;61.40;;;;;;4992159;28;94675;-62
2022/05/18 00:40:59;;;;;;;3.03;1.95;;;21.00;61.50;;;;;;4991214;28;92677;-63
2022/05/18 00:43:28;;;;;;;2.92;2.00;;;21.00;61.50;;;;;;4991374;28;92790;-63
2022/05/18 00:45:54;;;;;;;3.05;2.17;;;21.00;61.50;;;;;;4971735;28;95732;-63
2022/05/18 00:48:19;;;;;;;2.60;2.20;;;21.00;61.50;;;;;;4990758;28;95043;-63
2022/05/18 00:50:45;;;;;;;3.40;2.00;;;21.00;61.50;;;;;;4991276;28;92643;-63
2022/05/18 00:53:16;;;;;;;3.08;2.10;;;21.00;61.50;;;;;;4991430;28;92585;-63
2022/05/18 00:55:45;;;;;;;2.63;1.92;;;21.00;61.50;;;;;;4973321;28;94540;-63
2022/05/18 00:58:25;;;;;;;2.75;2.33;;;21.00;61.40;;;;;;4991170;28;92664;-63
2022/05/18 01:00:52;;;;;;;3.53;2.00;;;21.00;61.30;;;;;;4991174;28;93016;-63
2022/05/18 01:03:17;;;;;;;4.47;2.20;;;21.00;61.50;;;;;;4972414;28;91779;-62
2022/05/18 01:05:49;;;;;;;2.53;2.17;;;21.00;61.40;;;;;;4990356;28;93488;-63
2022/05/18 01:08:20;;;;;;;2.80;2.20;;;21.00;61.40;;;;;;4990816;28;92912;-63
2022/05/18 01:10:46;;;;;;;3.92;2.20;;;21.00;61.40;;;;;;4990775;28;95597;-63
2022/05/18 01:13:12;;;;;;;3.13;2.00;;;21.00;61.40;;;;;;4990436;28;92553;-63
2022/05/18 01:15:38;;;;;;;2.72;2.20;;;21.00;61.50;;;;;;4972655;28;95320;-63
2022/05/18 01:18:04;;;;;;;3.10;2.17;;;21.00;61.40;;;;;;4972331;28;93787;-63
2022/05/18 01:20:34;;;;;;;3.17;2.10;;;21.00;61.40;;;;;;4991673;28;92522;-63
2022/05/18 01:23:38;;;;;;;2.53;2.08;;;21.00;61.40;;;;;;4991379;28;93146;-63
2022/05/18 01:26:24;;;;;;;3.58;2.30;;;21.00;61.30;;;;;;4991557;28;93010;-63
2022/05/18 01:28:59;;;;;;;2.50;2.08;;;21.00;61.50;;;;;;4979428;28;92800;-62
2022/05/18 01:31:46;;;;;;;3.65;2.08;;;21.00;61.40;;;;;;4991177;28;92860;-62
2022/05/18 01:34:13;;;;;;;3.42;2.28;;;21.00;61.40;;;;;;4990878;28;92455;-63
2022/05/18 01:36:38;;;;;;;2.83;2.30;;;21.00;61.50;;;;;;4989907;28;95417;-62
2022/05/18 01:39:08;;;;;;;2.30;2.00;;;21.00;61.50;;;;;;4990975;28;95587;-63
2022/05/18 01:41:40;;;;;;;3.22;2.28;;;21.00;61.50;;;;;;4957425;28;92668;-63
2022/05/18 01:44:06;;;;;;;3.53;2.30;;;21.00;61.40;;;;;;4992258;28;93198;-62
2022/05/18 01:46:32;;;;;;;3.47;2.28;;;21.00;61.50;;;;;;5002758;28;93005;-63
2022/05/18 01:48:58;;;;;;;2.88;2.13;;;21.00;61.40;;;;;;5010278;28;92866;-62
2022/05/18 01:51:47;;;;;;;3.13;2.45;;;21.00;61.40;;;;;;4991291;28;92547;-62
2022/05/18 01:54:14;;;;;;;3.38;2.47;;;21.00;61.30;;;;;;4990133;28;92047;-63
2022/05/18 01:56:39;;;;;;;3.00;2.50;;;21.00;61.40;;;;;;4990405;28;93241;-65
2022/05/18 01:59:05;;;;;;;3.22;2.20;;;21.00;61.40;;;;;;4990236;28;92780;-62
2022/05/18 02:01:31;;;;;;;3.53;2.20;;;21.00;61.40;;;;;;4989769;28;95003;-63
2022/05/18 02:03:57;;;;;;;4.13;2.42;;;21.00;61.40;;;;;;4990428;28;92942;-63
2022/05/18 02:06:23;;;;;;;2.40;2.20;;;21.00;61.40;;;;;;4972893;28;93176;-62
2022/05/18 02:08:48;;;;;;;3.55;2.60;;;21.00;61.40;;;;;;4971561;28;93349;-62
2022/05/18 02:11:20;;;;;;;2.65;2.45;;;21.00;61.40;;;;;;4991269;28;92514;-62
2022/05/18 02:13:46;;;;;;;2.85;2.20;;;21.00;61.40;;;;;;4990706;28;92465;-62
2022/05/18 02:16:14;;;;;;;3.05;2.72;;;21.00;61.40;;;;;;4989962;28;93128;-63
2022/05/18 02:18:40;;;;;;;4.53;2.42;;;21.00;61.40;;;;;;4990162;28;94784;-63
2022/05/18 02:21:08;;;;;;;2.95;2.60;;;21.00;61.40;;;;;;4991079;28;92537;-62
2022/05/18 02:23:35;;;;;;;3.53;2.55;;;21.00;61.40;;;;;;4972425;28;93143;-62
2022/05/18 02:26:16;;;;;;;2.90;2.35;;;21.00;61.40;;;;;;4989194;28;95318;-62
2022/05/18 02:28:43;;;;;;;5.60;2.75;;;21.00;61.30;;;;;;4971841;28;97814;-63
2022/05/18 02:31:10;;;;;;;3.90;2.58;;;21.00;61.30;;;;;;4990614;28;93025;-62
2022/05/18 02:33:36;;;;;;;3.25;2.30;;;21.00;61.40;;;;;;4972953;28;92882;-62
2022/05/18 02:36:03;;;;;;;3.97;2.70;;;21.00;61.30;;;;;;4989704;28;93750;-62
2022/05/18 02:38:29;;;;;;;4.28;2.83;;;21.00;61.30;;;;;;4971867;28;93205;-62
2022/05/18 02:40:58;;;;;;;3.70;2.60;;;21.00;61.30;;;;;;4989995;28;92923;-62
2022/05/18 02:43:24;;;;;;;3.35;2.60;;;21.00;61.30;;;;;;4990497;28;92092;-62
2022/05/18 02:45:50;;;;;;;3.53;2.47;;;20.90;61.30;;;;;;4990384;28;92933;-62
2022/05/18 02:48:16;;;;;;;3.95;2.58;;;20.90;61.30;;;;;;4989668;28;92756;-62
2022/05/18 02:50:44;;;;;;;3.55;2.53;;;20.90;61.40;;;;;;4989208;28;94888;-62
2022/05/18 02:53:10;;;;;;;4.45;2.55;;;20.90;61.30;;;;;;4989746;28;92545;-62
2022/05/18 02:58:20;;;;;;;4.32;2.55;;;20.90;61.30;;;;;;4989343;28;92636;-63
2022/05/18 03:00:46;;;;;;;2.92;2.47;;;20.90;61.30;;;;;;4990206;28;92947;-63
2022/05/18 03:03:12;;;;;;;3.05;2.28;;;20.90;61.30;;;;;;4990333;28;92990;-63
2022/05/18 03:05:38;;;;;;;3.03;2.40;;;20.90;61.40;;;;;;4974419;28;94778;-63
2022/05/18 03:08:05;;;;;;;4.70;2.72;;;20.90;61.30;;;;;;4960469;28;92775;-62
2022/05/18 03:10:31;;;;;;;3.03;2.70;;;20.90;61.40;;;;;;4975436;28;93068;-62
2022/05/18 03:12:57;;;;;;;3.25;2.60;;;20.90;61.30;;;;;;4993669;28;92591;-62
2022/05/18 03:15:22;;;;;;;3.08;2.38;;;20.90;61.30;;;;;;4974051;28;95432;-63
2022/05/18 03:17:48;;;;;;;2.90;2.65;;;20.90;61.30;;;;;;4993180;28;95143;-63
2022/05/18 03:23:33;;;;;;;3.17;2.60;;;20.90;61.30;;;;;;4993201;28;93416;-63
2022/05/18 03:25:44;;;;;;;4.55;3.10;;;20.90;61.30;;;;;;4992768;28;93079;-63
2022/05/18 03:28:09;;;;;;;2.90;2.40;;;20.90;61.30;;;;;;4993007;28;93116;-62
2022/05/18 03:30:35;;;;;;;3.75;2.90;;;20.90;61.30;;;;;;4974763;28;92572;-63
2022/05/18 03:33:00;;;;;;;3.50;2.85;;;20.90;61.30;;;;;;4992928;28;91798;-63
2022/05/18 03:35:26;;;;;;;3.80;2.78;;;20.90;61.30;;;;;;4991805;28;93103;-63
2022/05/18 03:37:52;;;;;;;3.90;2.83;;;20.90;61.30;;;;;;4975063;28;93202;-63
2022/05/18 03:40:17;;;;;;;3.58;2.50;;;20.90;61.30;;;;;;4973132;28;95247;-62
2022/05/18 03:42:44;;;;;;;4.05;3.10;;;20.90;61.30;;;;;;4992791;28;92751;-62
2022/05/18 03:45:10;;;;;;;3.10;2.78;;;20.90;61.40;;;;;;4992774;28;92971;-63
2022/05/18 03:47:36;;;;;;;4.00;2.90;;;20.90;61.30;;;;;;4992435;28;93149;-63
2022/05/18 03:50:02;;;;;;;3.22;2.83;;;20.90;61.30;;;;;;4992556;28;92702;-63
2022/05/18 03:52:27;;;;;;;3.38;2.50;;;20.90;61.30;;;;;;4993302;28;92965;-62
2022/05/18 03:54:53;;;;;;;3.78;2.88;;;20.90;61.30;;;;;;4992624;28;93623;-63
2022/05/18 03:57:19;;;;;;;3.33;3.00;;;20.90;61.30;;;;;;4975083;28;92615;-63
2022/05/18 03:59:44;;;;;;;3.17;2.88;;;20.90;61.30;;;;;;4992491;28;92825;-60
2022/05/18 04:02:10;;;;;;;3.85;3.10;;;20.90;61.30;;;;;;4973841;28;92847;-62
2022/05/18 04:04:35;;;;;;;3.83;3.40;;;20.90;61.30;;;;;;4991341;28;95300;-62
2022/05/18 04:07:01;;;;;;;3.65;2.83;;;20.90;61.30;;;;;;4990920;28;95585;-62
2022/05/18 04:09:27;;;;;;;4.05;3.38;;;20.90;61.30;;;;;;4992611;28;92470;-62
2022/05/18 04:11:52;;;;;;;4.97;3.03;;;20.80;61.20;;;;;;4991809;28;92504;-62
2022/05/18 04:14:18;;;;;;;4.07;3.05;;;20.90;61.30;;;;;;4992295;28;93097;-62
2022/05/18 04:16:48;;;;;;;4.88;2.88;;;20.80;61.20;;;;;;4990911;28;92704;-62
2022/05/18 04:19:14;;;;;;;4.40;3.17;;;20.90;61.30;;;;;;4992328;28;93299;-62
2022/05/18 04:21:40;;;;;;;3.80;3.20;;;20.90;61.30;;;;;;4992690;28;91777;-62
2022/05/18 04:24:06;;;;;;;5.68;3.53;;;20.90;61.20;;;;;;4973424;28;94165;-63
2022/05/18 04:26:31;;;;;;;4.43;3.50;;;20.80;61.20;;;;;;4992029;28;93230;-62
2022/05/18 04:28:57;;;;;;;4.95;3.10;;;20.80;61.20;;;;;;4990623;28;95440;-62
2022/05/18 04:31:22;;;;;;;3.90;2.92;;;20.90;61.20;;;;;;4991878;28;92523;-61
2022/05/18 04:33:48;;;;;;;5.30;3.13;;;20.90;61.30;;;;;;4991298;28;93869;-62
2022/05/18 04:36:13;;;;;;;3.33;3.00;;;20.80;61.10;;;;;;4991905;28;92950;-62
2022/05/18 04:38:39;;;;;;;4.40;3.28;;;20.80;61.20;;;;;;4992738;28;92828;-61
2022/05/18 04:41:05;;;;;;;3.60;2.80;;;20.90;61.20;;;;;;4990955;28;92942;-62
2022/05/18 04:43:34;;;;;;;3.88;2.90;;;20.90;61.20;;;;;;4992031;28;93017;-62
2022/05/18 04:46:00;;;;;;;4.40;3.05;;;20.80;61.10;;;;;;4992466;28;92787;-62
2022/05/18 04:48:30;;;;;;;4.50;3.15;;;20.80;61.20;;;;;;4958156;28;92526;-62
2022/05/18 04:50:56;;;;;;;3.92;2.92;;;20.80;61.10;;;;;;4993437;28;92526;-60
2022/05/18 04:53:22;;;;;;;4.75;3.20;;;20.80;61.20;;;;;;4956905;28;98712;-62
2022/05/18 04:55:49;;;;;;;4.25;3.13;;;20.80;61.10;;;;;;4991115;28;93937;-62
2022/05/18 04:58:15;;;;;;;3.47;3.10;;;20.90;61.20;;;;;;4992223;28;92525;-62
2022/05/18 05:00:42;;;;;;;3.88;3.20;;;20.90;61.30;;;;;;4973620;28;93180;-62
2022/05/18 05:03:08;;;;;;;3.30;3.00;;;20.90;61.20;;;;;;4991343;28;92837;-62
2022/05/18 05:05:34;;;;;;;3.80;3.22;;;20.90;61.20;;;;;;4956861;28;95163;-62
2022/05/18 05:07:59;;;;;;;4.13;3.28;;;20.90;61.20;;;;;;4991331;28;92561;-62
2022/05/18 05:10:25;;;;;;;3.97;2.92;;;20.90;61.20;;;;;;4991827;28;91761;-62
2022/05/18 05:12:51;;;;;;;3.50;3.17;;;20.90;61.20;;;;;;4991318;28;93556;-62
2022/05/18 05:15:16;;;;;;;4.53;3.45;;;20.90;61.20;;;;;;4990965;28;93163;-62
2022/05/18 05:17:42;;;;;;;4.18;3.10;;;20.90;61.20;;;;;;4990027;28;94837;-62
2022/05/18 05:20:09;;;;;;;3.47;3.03;;;20.90;61.20;;;;;;4991060;28;92455;-62
2022/05/18 05:22:34;;;;;;;3.83;3.10;;;20.90;61.20;;;;;;4990980;28;93196;-62
2022/05/18 05:25:00;;;;;;;3.58;3.15;;;20.80;61.20;;;;;;4990713;28;102280;-62
2022/05/18 05:27:26;;;;;;;3.45;3.13;;;20.90;61.20;;;;;;4990950;28;92813;-62
2022/05/18 05:29:51;;;;;;;3.60;2.90;;;20.90;62.30;;;;;;4991414;28;93293;-62
2022/05/18 05:32:17;;;;;;;4.22;3.30;;;20.90;61.30;;;;;;4972717;28;95296;-62
2022/05/18 05:34:43;;;;;;;3.78;3.03;;;20.80;61.20;;;;;;4990579;28;92649;-62
2022/05/18 05:37:09;;;;;;;4.55;3.10;;;20.90;61.20;;;;;;4990863;28;92767;-62
2022/05/18 05:39:34;;;;;;;4.00;3.05;;;20.90;62.30;;;;;;4972580;28;93080;-61
2022/05/18 05:42:00;;;;;;;3.38;2.83;;;20.90;61.30;;;;;;4989972;28;95559;-62
2022/05/18 05:44:26;;;;;;;3.45;2.83;;;20.90;61.30;;;;;;4956390;28;95330;-62
2022/05/18 05:46:52;;;;;;;3.65;3.00;;;20.90;61.40;;;;;;4972783;28;92472;-62
2022/05/18 05:49:17;;;;;;;7.47;4.43;;;20.90;61.40;;;;;;4990327;28;92581;-62
2022/05/18 05:51:43;;;;;;;6.43;3.50;;;20.90;61.50;;;;;;4990721;28;93013;-62
2022/05/18 05:54:09;;;;;;;6.72;3.80;;;20.90;61.50;;;;;;4990872;28;93123;-62
2022/05/18 05:56:34;;;;;;;7.35;3.80;;;20.90;61.60;;;;;;4973341;28;93141;-61
2022/05/18 05:59:00;;;;;;;6.60;3.65;;;20.90;61.70;;;;;;4990159;28;91760;-61
2022/05/18 06:01:25;;;;;;;5.97;3.40;;;20.90;61.70;;;;;;4990562;28;92879;-62
2022/05/18 06:03:51;;;;;;;8.43;3.80;;;20.90;61.70;;;;;;4972061;28;93616;-62
2022/05/18 06:06:19;;;;;;;5.95;3.70;;;20.90;61.70;;;;;;4971496;28;94971;-62
2022/05/18 06:08:45;;;;;;;5.22;3.80;;;20.90;61.70;;;;;;4990164;28;93446;-62
2022/05/18 06:11:11;;;;;;;5.85;3.60;;;20.90;61.70;;;;;;4990205;28;93116;-62
2022/05/18 06:13:37;;;;;;;4.00;3.22;;;20.90;61.70;;;;;;4989993;28;93245;-62
2022/05/18 06:16:03;;;;;;;5.65;3.38;;;20.90;61.70;;;;;;4971834;28;93180;-62
2022/05/18 06:18:30;;;;;;;8.23;3.83;;;21.00;61.80;;;;;;4972147;28;92590;-62
2022/05/18 06:20:56;;;;;;;5.95;3.00;;;21.00;61.80;;;;;;4989108;28;93117;-61
2022/05/18 06:23:22;;;;;;;5.72;3.40;;;21.00;61.80;;;;;;4972556;28;92499;-61
2022/05/18 06:25:48;;;;;;;7.53;3.55;;;21.00;61.80;;;;;;4990423;28;92908;-61
2022/05/18 06:28:14;;;;;;;4.10;3.00;;;21.00;61.90;;;;;;4990412;28;93006;-62
2022/05/18 06:30:39;;;;;;;6.03;3.20;;;21.00;61.90;;;;;;4988808;28;95755;-62
2022/05/18 06:33:05;;;;;;;5.10;3.15;;;21.00;61.90;;;;;;4972321;28;95827;-61
2022/05/18 06:35:31;;;;;;;3.92;2.95;;;21.00;61.90;;;;;;4991812;28;92466;-62
2022/05/18 06:37:57;;;;;;;4.95;3.28;;;21.00;61.90;;;;;;4991213;28;92616;-62
2022/05/18 06:41:21;;;;;;;5.45;2.97;;;21.00;61.90;;;;;;4989535;28;93081;-62
2022/05/18 06:43:11;;;;;;;5.45;3.13;;;21.00;61.90;;;;;;4989265;28;93398;-62
2022/05/18 06:45:37;;;;;;;5.97;3.28;;;21.00;62.00;;;;;;4990339;28;92509;-61
2022/05/18 06:48:03;;;;;;;4.90;3.10;;;21.00;62.00;;;;;;4990033;28;92194;-62
2022/05/18 06:50:29;;;;;;;4.85;3.42;;;21.00;62.00;;;;;;4972075;28;93379;-62
2022/05/18 06:52:54;;;;;;;6.88;3.17;;;21.00;62.10;;;;;;4989785;28;92710;-61
2022/05/18 06:55:20;;;;;;;4.65;3.00;;;21.00;62.10;;;;;;4988741;28;94993;-61
2022/05/18 06:57:47;;;;;;;3.33;2.80;;;21.00;62.10;;;;;;4989777;28;92590;-62
2022/05/18 07:00:13;;;;;;;5.38;3.10;;;21.00;62.10;;;;;;4989684;28;94119;-62
2022/05/18 07:02:39;;;;;;;3.50;2.80;;;21.00;62.10;;;;;;4989835;28;93366;-62
2022/05/18 07:05:04;;;;;;;5.65;3.05;;;21.00;62.10;;;;;;4989054;28;92557;-62
2022/05/18 07:07:30;;;;;;;6.25;2.92;;;21.00;62.10;;;;;;4989391;28;92459;-62
2022/05/18 07:09:55;;;;;;;3.97;2.92;;;21.00;63.10;;;;;;4989533;28;93001;-62
2022/05/18 07:12:21;;;;;;;4.22;2.60;;;21.00;62.10;;;;;;4989454;28;92511;-62
2022/05/18 07:14:47;;;;;;;3.10;2.70;;;21.00;62.10;;;;;;4989159;28;92543;-62
2022/05/18 07:17:12;;;;;;;4.32;2.80;;;21.10;62.10;;;;;;4989407;28;92896;-62
2022/05/18 07:19:38;;;;;;;5.65;3.15;;;21.10;62.10;;;;;;4988163;28;95925;-61
2022/05/18 07:22:05;;;;;;;3.28;2.53;;;21.10;62.10;;;;;;4970791;28;96246;-62
2022/05/18 07:24:31;;;;;;;3.00;2.70;;;21.10;62.10;;;;;;4989612;28;92441;-62
2022/05/18 07:26:56;;;;;;;2.92;2.63;;;21.10;62.20;;;;;;4989666;28;92992;-62
2022/05/18 07:29:22;;;;;;;3.28;2.67;;;21.10;62.10;;;;;;4971097;28;94357;-62
2022/05/18 07:34:47;;;;;;;4.55;2.60;;;21.10;62.10;;;;;;4944265;28;92923;-61
2022/05/18 07:37:14;;;;;;;3.75;2.70;;;21.10;62.10;;;;;;4989692;28;91857;-62
2022/05/18 07:39:40;;;;;;;4.88;2.78;;;21.10;62.10;;;;;;4988992;28;92746;-62
2022/05/18 07:42:06;;;;;;;4.50;2.75;;;21.10;62.10;;;;;;4988484;28;93310;-62
2022/05/18 07:44:33;;;;;;;3.92;2.88;;;21.10;62.10;;;;;;4988774;28;95166;-62
2022/05/18 07:46:59;;;;;;;3.08;2.75;;;21.10;62.00;;;;;;4989574;28;93083;-62
2022/05/18 07:49:24;;;;;;;3.95;2.40;;;21.10;62.00;;;;;;4988931;28;93222;-61
2022/05/18 07:51:50;;;;;;;4.25;2.67;;;21.10;62.00;;;;;;4990411;28;93598;-62
2022/05/18 07:54:17;;;;;;;3.08;2.80;;;21.10;63.00;;;;;;4992508;28;92532;-62
2022/05/18 07:56:42;;;;;;;3.72;3.00;;;21.10;62.00;;;;;;4992709;28;92552;-61
2022/05/18 07:59:10;;;;;;;3.67;2.70;;;21.10;62.00;;;;;;4974105;28;93444;-61
2022/05/18 08:01:36;;;;;;;5.05;2.72;;;21.10;61.90;;;;;;4993226;28;91791;-61
2022/05/18 08:04:03;;;;;;;3.17;2.85;;;21.20;62.00;;;;;;4992061;28;92671;-63
2022/05/18 08:06:28;;;;;;;3.13;2.80;;;21.20;62.00;;;;;;4974399;28;93605;-63
2022/05/18 08:08:55;;;;;;;3.53;2.65;;;21.20;61.90;;;;;;4990458;28;95384;-64
2022/05/18 08:16:50;;;;;;;3.40;2.90;;;21.20;61.90;;;;;;4992487;28;92642;-64
2022/05/18 08:19:17;;;;;;;3.13;2.80;;;21.20;61.90;;;;;;4993658;28;93549;-65
2022/05/18 08:21:43;;;;;;;3.35;2.70;;;21.20;61.90;;;;;;4993609;28;92837;-64
2022/05/18 08:24:09;;;;;;;4.78;3.20;;;21.20;61.90;;;;;;4993564;28;92966;-65
2022/05/18 08:26:34;;;;;;;3.28;2.70;;;21.20;61.80;;;;;;4993253;28;91698;-64
2022/05/18 08:29:02;;;;;;;3.35;2.85;;;21.20;61.80;;;;;;4992132;28;92888;-64
2022/05/18 08:31:27;;;;;;;3.10;2.80;;;21.20;61.80;;;;;;4974220;28;93281;-64
2022/05/18 08:33:53;;;;;;;3.92;2.85;;;21.20;61.80;;;;;;4990407;28;95771;-64
2022/05/18 08:36:19;;;;;;;3.20;2.90;;;21.20;61.90;;;;;;4991942;28;93382;-64
2022/05/18 08:38:45;;;;;;;3.28;3.00;;;21.20;61.80;;;;;;4973973;28;95748;-64
2022/05/18 08:41:19;;;;;;;3.92;3.03;;;21.20;61.80;;;;;;4992088;28;92832;-64
2022/05/18 08:43:48;;;;;;;3.35;2.95;;;21.20;61.80;;;;;;4991854;28;92613;-64
2022/05/18 08:46:18;;;;;;;3.00;2.70;;;21.20;61.90;;;;;;4991568;28;92514;-64
2022/05/18 08:49:06;;;;;;;3.08;2.80;;;21.20;61.80;;;;;;4991658;28;93378;-64
2022/05/18 08:51:45;;;;;;;3.22;2.92;;;21.20;61.80;;;;;;4972853;28;95487;-64
2022/05/18 08:54:24;;;;;;;3.75;3.13;;;21.20;61.70;;;;;;4992020;28;92830;-64
2022/05/18 08:56:52;;;;;;;3.15;2.85;;;21.30;61.80;;;;;;4991865;28;92565;-64
2022/05/18 08:59:24;;;;;;;3.50;3.20;;;21.30;61.80;;;;;;4971607;28;98852;-64
2022/05/18 09:01:51;;;;;;;3.95;2.90;;;21.30;61.80;;;;;;4991420;28;95147;-64
2022/05/18 09:04:26;;;;;;;4.18;3.10;;;21.30;61.90;;;;;;4990875;28;93134;-64
2022/05/18 09:06:58;;;;;;;3.30;3.00;;;21.30;61.80;;;;;;4990880;28;92850;-64
2022/05/18 09:12:28;;;;;;;3.53;3.05;;;21.30;61.80;;;;;;4947331;28;92590;-63
2022/05/18 09:14:55;;;;;;;3.60;2.70;;;21.30;61.80;;;;;;4973272;28;92573;-63
2022/05/18 09:17:39;;;;;;;3.88;3.20;;;21.30;61.80;;;;;;4991193;28;92399;-65
2022/05/18 09:20:30;;;;;;;3.65;2.60;;;21.30;61.70;;;;;;4990927;28;93295;-64
2022/05/18 09:23:12;;;;;;;4.35;3.25;;;21.30;61.80;;;;;;4990990;28;92756;-64
2022/05/18 09:25:55;;;;;;;3.40;2.95;;;21.30;61.80;;;;;;4990670;28;94934;-64
2022/05/18 09:28:23;;;;;;;3.20;2.90;;;21.30;61.80;;;;;;4990596;28;92722;-63
2022/05/18 09:30:55;;;;;;;4.25;3.25;;;21.30;61.80;;;;;;4990857;28;93107;-64
2022/05/18 09:33:48;;;;;;;3.50;3.20;;;21.30;61.80;;;;;;4991560;28;92665;-64
2022/05/18 09:36:29;;;;;;;;;;;21.40;61.80;;;;;;4991790;28;92894;-64
2022/05/18 09:39:03;;;;;;;3.20;2.90;;;21.30;61.80;;;;;;4992261;28;92910;-64
2022/05/18 09:41:36;;;;;;;4.32;3.30;;;21.30;62.00;;;;;;4955814;28;93498;-64
2022/05/18 09:44:22;;;;;;;3.42;2.90;;;21.30;61.80;;;;;;4990993;28;92716;-64
2022/05/18 09:46:50;;;;;;;4.43;3.30;;;21.40;61.80;;;;;;4990107;28;93054;-64
2022/05/18 09:49:29;;;;;;;3.80;3.17;;;21.40;61.80;;;;;;4971804;28;92734;-64
2022/05/18 09:51:57;;;;;;;3.55;3.17;;;21.40;61.80;;;;;;4988632;28;95457;-64
2022/05/18 09:54:23;;;;;;;3.83;3.45;;;21.40;61.90;;;;;;4990736;28;95679;-64
2022/05/18 09:57:40;;;;;;;3.35;3.03;;;21.40;61.90;;;;;;4991243;28;92917;-64
2022/05/18 10:00:13;;;;;;;3.60;3.30;;;21.40;61.80;;;;;;4986933;28;92697;-64
2022/05/18 10:08:21;;;;;;;3.25;2.95;;;21.40;61.90;;;;;;4997097;28;93177;-64
2022/05/18 10:10:52;;;;;;;3.45;2.80;;;21.40;61.90;;;;;;4991477;28;92216;-63
2022/05/18 10:13:24;;;;;;;3.30;3.00;;;21.40;61.80;;;;;;4990371;28;96222;-65
2022/05/18 10:16:02;;;;;;;3.30;3.00;;;21.50;61.90;;;;;;4989488;28;92747;-65
2022/05/18 10:18:43;;;;;;;4.32;2.90;;;21.50;61.90;;;;;;4988736;28;95376;-65
2022/05/18 10:21:09;;;;;;;4.45;2.78;;;21.50;61.90;;;;;;4990962;28;92912;-64
2022/05/18 10:23:51;;;;;;;2.90;2.63;;;21.50;61.90;;;;;;4990181;28;93214;-64
2022/05/18 10:26:28;;;;;;;2.78;2.58;;;21.50;61.80;;;;;;4989570;28;92890;-64
2022/05/18 10:29:18;;;;;;;3.42;2.75;;;21.50;61.90;;;;;;4972667;28;92971;-64
2022/05/18 10:32:00;;;;;;;3.95;2.63;;;21.50;61.90;;;;;;4971910;28;93007;-64
2022/05/18 10:34:29;;;;;;;3.10;2.55;;;21.50;62.90;;;;;;4989843;28;93576;-64
2022/05/18 10:37:01;;;;;;;3.10;2.65;;;21.50;61.90;;;;;;4972112;28;94142;-64
2022/05/18 10:39:35;;;;;;;2.83;2.53;;;21.50;61.90;;;;;;4956208;28;93217;-64
2022/05/18 10:42:28;;;;;;;3.13;2.65;;;21.50;61.90;;;;;;4990001;28;92530;-64
2022/05/18 10:44:56;;;;;;;3.13;2.80;;;21.50;61.90;;;;;;4977158;28;95797;-64
2022/05/18 10:47:35;;;;;;;2.70;2.50;;;21.50;61.90;;;;;;4971209;28;95403;-64
2022/05/18 10:50:34;;;;;;;3.42;2.85;;;21.50;61.90;;;;;;4989925;28;92964;-63
2022/05/18 10:53:28;;;;;;;4.60;2.63;;;21.60;61.90;;;;;;4989734;28;92507;-63
2022/05/18 10:56:26;;;;;;;2.80;2.38;;;21.60;61.90;;;;;;4989954;28;93087;-64
2022/05/18 10:59:19;;;;;;;2.80;2.60;;;21.60;62.00;;;;;;4971506;28;94196;-65
2022/05/18 11:01:54;;;;;;;2.90;2.63;;;21.60;62.00;;;;;;4971394;28;92996;-64
2022/05/18 11:04:27;;;;;;;3.88;2.92;;;21.60;62.00;;;;;;4990064;28;91886;-65
2022/05/18 11:06:53;;;;;;;;;;;21.60;61.90;;;;;;4989594;28;92602;-64
2022/05/18 11:09:32;;;;;;;2.90;2.60;;;21.60;61.90;;;;;;4972886;28;92969;-64
2022/05/18 11:12:25;;;;;;;3.10;2.63;;;21.60;62.00;;;;;;4988582;28;94879;-64
2022/05/18 11:14:55;;;;;;;;;;;21.60;62.00;;;;;;4990310;28;92610;-63
2022/05/18 11:17:42;;;;;;;2.88;2.67;;;21.60;62.00;;;;;;4990517;28;92927;-64
2022/05/18 11:20:23;;;;;;;2.85;2.58;;;21.60;62.10;;;;;;4989317;28;92807;-64
2022/05/18 11:23:00;;;;;;;3.15;2.78;;;21.60;62.00;;;;;;4989533;28;92587;-64
2022/05/18 11:25:43;;;;;;;3.42;2.75;;;21.70;62.10;;;;;;4989767;28;93194;-65
2022/05/18 11:28:29;;;;;;;3.17;2.63;;;21.60;62.00;;;;;;4992151;28;93039;-64
2022/05/18 11:31:32;;;;;;;3.05;2.70;;;21.70;62.10;;;;;;4993323;28;93061;-64
2022/05/18 11:34:14;;;;;;;3.33;2.95;;;21.70;62.10;;;;;;4992889;28;92642;-64
2022/05/18 11:37:11;;;;;;;3.63;2.78;;;21.60;62.10;;;;;;4993307;28;92977;-64
2022/05/18 11:40:29;;;;;;;4.13;3.00;;;21.70;62.10;;;;;;4990854;28;95747;-64
2022/05/18 11:43:28;;;;;;;3.35;3.05;;;21.60;62.10;;;;;;4951815;28;97572;-64
2022/05/18 11:46:18;;;;;;;3.92;3.28;;;21.60;62.10;;;;;;4992507;28;93283;-64
2022/05/18 11:49:13;;;;;;;3.60;3.30;;;21.60;62.10;;;;;;4993434;28;92588;-65
2022/05/18 11:51:58;;;;;;;3.28;2.97;;;21.70;62.10;;;;;;4993105;28;93083;-64
2022/05/18 11:54:33;;;;;;;4.20;3.13;;;21.70;62.20;;;;;;4993515;28;93083;-63
2022/05/18 11:57:05;;;;;;;3.70;3.40;;;21.70;62.10;;;;;;4974958;28;92562;-64
2022/05/18 11:59:58;;;;;;;4.65;3.60;;;21.70;62.10;;;;;;4993139;28;91777;-64
2022/05/18 12:02:45;;;;;;;3.20;2.90;;;21.70;62.10;;;;;;4991270;28;92942;-63
2022/05/18 12:05:23;;;;;;;3.80;3.25;;;21.70;62.10;;;;;;4991899;28;92787;-63
2022/05/18 12:08:26;;;;;;;4.55;3.28;;;21.70;62.20;;;;;;4990157;28;95115;-64
2022/05/18 12:11:04;;;;;;;3.40;3.10;;;21.70;62.10;;;;;;4991978;28;92546;-63
2022/05/18 12:14:07;;;;;;;3.00;2.70;;;21.70;62.30;;;;;;4991493;28;93148;-63
2022/05/18 12:16:44;;;;;;;4.30;3.05;;;21.70;62.20;;;;;;4991786;28;93063;-63
2022/05/18 12:19:22;;;;;;;4.00;3.40;;;21.70;62.30;;;;;;4991673;28;92459;-64
2022/05/18 12:21:58;;;;;;;4.05;3.10;;;21.60;62.20;;;;;;4992262;28;92983;-63
2022/05/18 12:24:25;;;;;;;5.40;3.67;;;21.60;62.20;;;;;;4992024;28;93181;-64
2022/05/18 12:26:52;;;;;;;3.65;3.35;;;21.70;62.30;;;;;;4992590;28;92546;-63
2022/05/18 12:29:22;;;;;;;4.70;3.70;;;21.60;62.20;;;;;;4991538;28;93252;-63
2022/05/18 12:31:49;;;;;;;3.88;3.20;;;21.70;62.30;;;;;;4991697;28;93132;-64
2022/05/18 12:34:24;;;;;;;4.32;3.80;;;21.60;62.20;;;;;;4990421;28;96075;-63
2022/05/18 12:37:02;;;;;;;3.72;3.25;;;21.60;62.20;;;;;;4992148;28;95085;-64
2022/05/18 12:39:42;;;;;;;4.25;3.85;;;21.70;62.20;;;;;;4990183;28;92776;-64
2022/05/18 12:42:36;;;;;;;4.38;3.67;;;21.70;62.60;;;;;;4992157;28;93102;-64
2022/05/18 12:45:29;;;;;;;5.35;4.10;;;21.70;62.30;;;;;;4988545;28;93615;-65
2022/05/18 12:48:20;;;;;;;4.32;3.92;;;21.70;62.30;;;;;;4991386;28;93079;-65
2022/05/18 12:50:48;;;;;;;5.93;4.10;;;21.70;62.30;;;;;;4962684;28;92851;-64
2022/05/18 12:53:25;;;;;;;4.32;3.58;;;21.70;62.30;;;;;;4992300;28;92070;-64
2022/05/18 12:55:50;;;;;;;4.93;4.00;;;21.80;62.30;;;;;;4992217;28;93140;-64
2022/05/18 12:58:37;;;;;;;4.68;3.97;;;21.80;62.30;;;;;;4973295;28;94061;-64
2022/05/18 13:01:08;;;;;;;4.13;3.72;;;21.70;62.10;;;;;;4989713;28;95183;-64
2022/05/18 13:03:42;;;;;;;4.43;3.70;;;21.80;62.10;;;;;;4991855;28;92521;-65
2022/05/18 13:06:17;;;;;;;4.40;4.00;;;21.80;62.10;;;;;;4991454;28;92872;-65
2022/05/18 13:08:56;;;;;;;4.85;3.95;;;21.70;62.10;;;;;;4972629;28;94727;-65
2022/05/18 13:11:23;;;;;;;4.53;3.92;;;21.80;62.10;;;;;;4957126;28;92614;-64
2022/05/18 13:14:30;;;;;;;5.38;3.90;;;21.80;62.10;;;;;;4991430;28;93176;-65
2022/05/18 13:16:59;;;;;;;4.10;3.63;;;21.80;62.10;;;;;;4973380;28;95897;-64
2022/05/18 13:19:28;;;;;;;4.88;4.03;;;21.80;62.10;;;;;;4991468;28;92826;-64
2022/05/18 13:21:59;;;;;;;5.70;4.22;;;21.80;62.20;;;;;;4991240;28;93166;-65
2022/05/18 13:24:31;;;;;;;4.93;3.67;;;21.80;62.10;;;;;;4991070;28;92481;-64
2022/05/18 13:27:03;;;;;;;4.78;3.90;;;21.80;62.20;;;;;;4989981;28;95255;-64
2022/05/18 13:29:30;;;;;;;4.22;3.80;;;21.80;62.20;;;;;;4972580;28;95039;-63
2022/05/18 13:32:03;;;;;;;5.30;4.38;;;21.80;62.20;;;;;;4991334;28;92710;-63